createdAt,value
2022-12-07T00:01:22.493Z,10.03
2022-12-07T00:03:52.846Z,9.33
2022-12-07T00:06:20.996Z,10.33
2022-12-07T00:08:48.783Z,10.57
2022-12-07T00:11:18.120Z,9.40
2022-12-07T00:13:46.017Z,10.23
2022-12-07T00:16:15.814Z,9.63
2022-12-07T00:18:43.681Z,10.10
2022-12-07T00:21:15.373Z,9.50
2022-12-07T00:23:43.657Z,9.77
2022-12-07T00:26:18.710Z,9.93
2022-12-07T00:28:49.743Z,9.60
2022-12-07T00:31:18.794Z,9.00
2022-12-07T00:33:46.198Z,9.17
2022-12-07T00:36:18.941Z,9.43
2022-12-07T00:38:48.631Z,9.00
2022-12-07T00:41:21.455Z,9.40
2022-12-07T00:43:49.880Z,8.93
2022-12-07T00:46:18.075Z,8.33
2022-12-07T00:48:45.386Z,9.20
2022-12-07T00:51:16.543Z,9.37
2022-12-07T00:53:43.729Z,8.80
2022-12-07T00:56:13.923Z,8.27
2022-12-07T00:58:40.840Z,7.77
2022-12-07T01:01:09.415Z,8.43
2022-12-07T01:03:36.647Z,7.50
2022-12-07T01:06:05.601Z,8.63
2022-12-07T01:08:32.517Z,8.20
2022-12-07T01:11:08.353Z,8.00
2022-12-07T01:13:36.284Z,7.80
2022-12-07T01:16:05.922Z,7.30
2022-12-07T01:18:35.829Z,7.87
2022-12-07T01:21:08.550Z,7.00
2022-12-07T01:23:37.442Z,6.67
2022-12-07T01:26:07.036Z,6.57
2022-12-07T01:28:34.628Z,6.80
2022-12-07T01:31:03.398Z,6.20
2022-12-07T01:33:33.013Z,6.60
2022-12-07T01:36:18.180Z,6.50
2022-12-07T01:38:46.441Z,6.80
2022-12-07T01:41:14.605Z,7.13
2022-12-07T01:44:11.349Z,6.63
2022-12-07T01:46:39.126Z,6.60
2022-12-07T01:49:15.109Z,6.30
2022-12-07T01:51:44.143Z,6.63
2022-12-07T01:54:13.788Z,7.03
2022-12-07T01:56:43.732Z,6.37
2022-12-07T01:59:10.694Z,6.13
2022-12-07T02:01:37.544Z,6.40
2022-12-07T02:04:05.347Z,6.03
2022-12-07T02:06:32.336Z,6.77
2022-12-07T02:08:59.096Z,6.10
2022-12-07T02:11:25.965Z,6.80
2022-12-07T02:13:53.187Z,6.00
2022-12-07T02:16:41.599Z,6.40
2022-12-07T02:19:33.240Z,6.70
2022-12-07T02:22:41.430Z,5.70
2022-12-07T02:25:45.735Z,6.47
2022-12-07T02:28:36.371Z,6.13
2022-12-07T02:31:13.391Z,5.93
2022-12-07T02:33:53.186Z,6.00
2022-12-07T02:36:23.394Z,5.77
2022-12-07T02:39:03.659Z,5.80
2022-12-07T02:41:41.560Z,6.03
2022-12-07T02:44:13.730Z,5.50
2022-12-07T02:46:50.549Z,5.40
2022-12-07T02:49:17.745Z,5.60
2022-12-07T02:51:46.957Z,5.50
2022-12-07T02:54:15.882Z,5.67
2022-12-07T02:56:45.459Z,5.50
2022-12-07T02:59:15.271Z,5.47
2022-12-07T03:02:03.798Z,5.50
2022-12-07T03:04:45.729Z,4.90
2022-12-07T03:07:27.738Z,5.33
2022-12-07T03:10:09.160Z,5.17
2022-12-07T03:12:44.115Z,5.53
2022-12-07T03:15:22.891Z,5.60
2022-12-07T03:17:51.130Z,5.43
2022-12-07T03:20:22.569Z,5.57
2022-12-07T03:22:50.020Z,5.17
2022-12-07T03:25:18.435Z,5.03
2022-12-07T03:27:59.393Z,5.80
2022-12-07T03:30:43.887Z,6.27
2022-12-07T03:33:35.490Z,6.50
2022-12-07T03:36:12.322Z,5.60
2022-12-07T03:38:46.058Z,5.53
2022-12-07T03:41:20.607Z,6.10
2022-12-07T03:43:47.640Z,6.23
2022-12-07T03:46:52.997Z,6.17
2022-12-07T03:49:36.510Z,6.50
2022-12-07T03:52:09.106Z,6.93
2022-12-07T03:54:48.877Z,6.63
2022-12-07T03:57:16.706Z,6.93
2022-12-07T03:59:44.344Z,7.20
2022-12-07T04:02:13.751Z,7.63
2022-12-07T04:04:40.968Z,7.50
2022-12-07T04:07:07.766Z,8.17
2022-12-07T04:09:34.552Z,7.23
2022-12-07T04:12:01.472Z,8.07
2022-12-07T04:14:28.295Z,8.33
2022-12-07T04:16:57.807Z,8.70
2022-12-07T04:19:27.656Z,8.40
2022-12-07T04:21:55.755Z,8.83
2022-12-07T04:24:23.310Z,8.13
2022-12-07T04:26:50.536Z,7.70
2022-12-07T04:29:18.907Z,8.87
2022-12-07T04:31:46.346Z,8.90
2022-12-07T04:34:13.845Z,9.47
2022-12-07T04:36:41.465Z,9.97
2022-12-07T04:39:14.470Z,9.87
2022-12-07T04:41:41.278Z,10.43
2022-12-07T04:44:08.495Z,9.80
2022-12-07T04:46:35.488Z,11.20
2022-12-07T04:49:02.411Z,10.87
2022-12-07T04:51:30.332Z,12.17
2022-12-07T04:53:57.698Z,11.87
2022-12-07T04:56:25.184Z,12.13
2022-12-07T04:58:54.348Z,11.37
2022-12-07T05:01:22.517Z,11.80
2022-12-07T05:03:49.467Z,12.27
2022-12-07T05:06:16.538Z,12.13
2022-12-07T05:08:44.055Z,11.40
2022-12-07T05:11:34.946Z,13.17
2022-12-07T05:14:03.606Z,13.27
2022-12-07T05:16:30.684Z,12.50
2022-12-07T05:18:57.568Z,12.57
2022-12-07T05:21:24.373Z,12.23
2022-12-07T05:23:51.419Z,12.73
2022-12-07T05:26:18.815Z,13.20
2022-12-07T05:28:45.643Z,14.13
2022-12-07T05:31:12.464Z,13.43
2022-12-07T05:33:39.616Z,12.77
2022-12-07T05:36:08.260Z,12.87
2022-12-07T05:38:35.189Z,12.53
2022-12-07T05:41:03.546Z,13.33
2022-12-07T05:43:31.368Z,14.40
2022-12-07T05:45:58.799Z,13.63
2022-12-07T05:48:26.343Z,13.67
2022-12-07T05:50:53.695Z,13.07
2022-12-07T05:53:23.226Z,14.60
2022-12-07T05:55:50.473Z,14.77
2022-12-07T05:58:36.284Z,14.13
2022-12-07T06:01:03.057Z,14.67
2022-12-07T06:03:30.047Z,15.20
2022-12-07T06:05:56.902Z,14.30
2022-12-07T06:08:23.753Z,14.77
2022-12-07T06:11:13.460Z,15.90
2022-12-07T06:13:46.809Z,15.60
2022-12-07T06:16:14.338Z,15.63
2022-12-07T06:18:41.449Z,15.57
2022-12-07T06:21:08.252Z,15.57
2022-12-07T06:23:35.035Z,14.60
2022-12-07T06:26:01.928Z,16.10
2022-12-07T06:28:28.675Z,16.47
2022-12-07T06:31:02.873Z,16.23
2022-12-07T06:33:30.454Z,17.20
2022-12-07T06:35:57.327Z,16.57
2022-12-07T06:38:24.132Z,15.83
2022-12-07T06:40:50.926Z,17.03
2022-12-07T06:43:17.783Z,16.40
2022-12-07T06:45:44.725Z,15.97
2022-12-07T06:48:11.556Z,16.40
2022-12-07T06:50:38.775Z,15.80
2022-12-07T06:53:05.556Z,15.70
2022-12-07T06:55:32.313Z,15.63
2022-12-07T06:57:59.086Z,15.60
2022-12-07T07:00:26.123Z,17.10
2022-12-07T07:02:53.072Z,16.13
2022-12-07T07:05:22.348Z,17.93
2022-12-07T07:08:20.783Z,16.40
2022-12-07T07:10:38.009Z,15.03
2022-12-07T07:13:05.413Z,16.27
2022-12-07T07:15:33.762Z,16.83
2022-12-07T07:18:07.415Z,17.20
2022-12-07T07:20:34.665Z,16.00
2022-12-07T07:23:01.690Z,16.37
2022-12-07T07:25:28.548Z,17.43
2022-12-07T07:27:55.322Z,16.80
2022-12-07T07:30:22.520Z,17.27
2022-12-07T07:32:49.590Z,16.30
2022-12-07T07:35:16.736Z,17.20
2022-12-07T07:37:43.949Z,16.40
2022-12-07T07:40:11.410Z,16.57
2022-12-07T07:42:39.314Z,16.97
2022-12-07T07:45:06.625Z,16.73
2022-12-07T07:47:33.464Z,16.37
2022-12-07T07:50:00.436Z,16.57
2022-12-07T07:52:27.557Z,17.03
2022-12-07T07:54:54.322Z,16.47
2022-12-07T07:57:21.080Z,16.57
2022-12-07T07:59:47.832Z,16.23
2022-12-07T08:02:16.975Z,15.40
2022-12-07T08:04:44.542Z,14.57
2022-12-07T08:07:11.853Z,14.23
2022-12-07T08:09:38.953Z,14.13
2022-12-07T08:12:06.401Z,14.67
2022-12-07T08:14:33.638Z,14.70
2022-12-07T08:17:00.912Z,13.83
2022-12-07T08:19:27.827Z,13.67
2022-12-07T08:21:56.369Z,14.00
2022-12-07T08:24:24.054Z,13.17
2022-12-07T08:26:51.348Z,13.70
2022-12-07T08:29:18.649Z,11.87
2022-12-07T08:31:45.584Z,10.80
2022-12-07T08:34:13.688Z,10.87
2022-12-07T08:36:41.039Z,10.37
2022-12-07T08:39:30.839Z,9.90
2022-12-07T08:41:54.669Z,9.20
2022-12-07T08:44:21.461Z,8.63
2022-12-07T08:46:56.560Z,7.87
2022-12-07T08:49:35.522Z,8.43
2022-12-07T08:52:05.000Z,8.67
2022-12-07T08:54:34.622Z,7.70
2022-12-07T08:57:01.481Z,8.50
2022-12-07T08:59:29.579Z,7.90
2022-12-07T09:01:56.434Z,6.90
2022-12-07T09:04:23.271Z,6.97
2022-12-07T09:06:50.200Z,5.03
2022-12-07T09:09:17.303Z,4.53
2022-12-07T09:11:46.202Z,5.07
2022-12-07T09:14:13.684Z,4.70
2022-12-07T09:16:41.115Z,5.13
2022-12-07T09:19:09.127Z,5.10
2022-12-07T09:21:35.971Z,4.37
2022-12-07T09:24:02.832Z,3.70
2022-12-07T09:26:29.642Z,3.20
2022-12-07T09:28:56.483Z,3.40
2022-12-07T09:31:25.255Z,2.60
2022-12-07T09:34:00.895Z,2.50
2022-12-07T09:36:28.678Z,2.83
2022-12-07T09:38:55.900Z,2.50
2022-12-07T09:41:25.155Z,2.60
2022-12-07T09:43:52.643Z,2.30
2022-12-07T09:46:21.451Z,2.70
2022-12-07T09:48:50.834Z,2.80
2022-12-07T09:51:23.739Z,2.73
2022-12-07T09:53:53.119Z,2.40
2022-12-07T09:56:21.354Z,2.43
2022-12-07T09:58:49.009Z,2.90
2022-12-07T10:01:19.684Z,2.40
2022-12-07T10:03:53.058Z,2.50
2022-12-07T10:06:20.013Z,2.00
2022-12-07T10:08:47.070Z,2.30
2022-12-07T10:11:15.869Z,2.33
2022-12-07T10:13:49.918Z,2.60
2022-12-07T10:16:26.767Z,2.20
2022-12-07T10:18:53.813Z,2.30
2022-12-07T10:21:21.792Z,2.30
2022-12-07T10:24:15.835Z,2.10
2022-12-07T10:26:48.881Z,2.00
2022-12-07T10:29:20.240Z,2.37
2022-12-07T10:31:56.980Z,2.30
2022-12-07T10:34:25.612Z,1.90
2022-12-07T10:36:54.198Z,1.93
2022-12-07T10:39:23.344Z,1.90
2022-12-07T10:41:58.520Z,2.43
2022-12-07T10:44:28.939Z,2.27
2022-12-07T10:46:55.764Z,2.50
2022-12-07T10:49:44.561Z,2.40
2022-12-07T10:52:19.749Z,2.53
2022-12-07T10:54:58.530Z,2.50
2022-12-07T10:57:45.042Z,2.60
2022-12-07T11:00:32.404Z,2.70
2022-12-07T11:03:25.395Z,2.60
2022-12-07T11:06:11.054Z,2.73
2022-12-07T11:08:48.796Z,3.30
2022-12-07T11:11:34.422Z,3.50
2022-12-07T11:14:17.112Z,3.97
2022-12-07T11:16:57.427Z,3.93
2022-12-07T11:20:01.021Z,3.30
2022-12-07T11:22:49.337Z,3.60
2022-12-07T11:25:34.098Z,3.70
2022-12-07T11:28:09.961Z,3.10
2022-12-07T11:30:44.086Z,3.50
2022-12-07T11:33:27.299Z,3.23
2022-12-07T11:36:18.493Z,3.70
2022-12-07T11:39:01.042Z,3.40
2022-12-07T11:41:34.034Z,3.40
2022-12-07T11:44:06.081Z,3.20
2022-12-07T11:46:50.298Z,3.10
2022-12-07T11:49:33.022Z,3.30
2022-12-07T11:52:02.515Z,2.93
2022-12-07T11:54:36.378Z,3.17
2022-12-07T11:57:12.468Z,4.77
2022-12-07T11:59:51.452Z,6.50
2022-12-07T12:02:32.557Z,9.07
2022-12-07T12:05:19.361Z,3.43
2022-12-07T12:10:46.683Z,3.40
2022-12-07T12:16:25.569Z,3.53
2022-12-07T12:19:15.445Z,3.60
2022-12-07T12:21:43.412Z,2.60
2022-12-07T12:24:22.158Z,2.80
2022-12-07T12:26:53.780Z,2.80
2022-12-07T12:29:34.508Z,2.80
2022-12-07T12:32:23.486Z,3.20
2022-12-07T12:34:59.636Z,5.60
2022-12-07T12:37:35.781Z,3.97
2022-12-07T12:40:17.307Z,3.57
2022-12-07T12:42:49.884Z,2.70
2022-12-07T12:45:21.803Z,3.40
2022-12-07T12:47:57.785Z,3.13
2022-12-07T12:50:30.093Z,3.50
2022-12-07T12:53:03.961Z,4.10
2022-12-07T12:55:42.673Z,2.80
2022-12-07T12:58:18.655Z,2.90
2022-12-07T13:00:48.096Z,2.40
2022-12-07T13:03:31.070Z,2.70
2022-12-07T13:06:29.930Z,3.00
2022-12-07T13:09:00.577Z,2.77
2022-12-07T13:11:34.663Z,2.60
2022-12-07T13:14:41.606Z,2.77
2022-12-07T13:17:34.256Z,2.40
2022-12-07T13:20:03.499Z,2.37
2022-12-07T13:22:38.788Z,2.70
2022-12-07T13:25:27.385Z,2.43
2022-12-07T13:28:15.125Z,2.50
2022-12-07T13:31:11.819Z,2.50
2022-12-07T13:33:38.767Z,2.30
2022-12-07T13:36:11.055Z,2.40
2022-12-07T13:38:38.269Z,2.20
2022-12-07T13:41:17.006Z,2.10
2022-12-07T13:43:50.130Z,2.20
2022-12-07T13:46:21.696Z,2.73
2022-12-07T13:48:49.904Z,2.00
2022-12-07T13:51:21.306Z,2.30
2022-12-07T13:53:54.051Z,2.10
2022-12-07T13:56:23.731Z,2.10
2022-12-07T13:58:50.680Z,1.93
2022-12-07T14:01:17.746Z,1.87
2022-12-07T14:03:44.711Z,1.90
2022-12-07T14:06:16.884Z,2.10
2022-12-07T14:08:44.594Z,2.00
2022-12-07T14:11:19.971Z,1.90
2022-12-07T14:14:07.169Z,2.13
2022-12-07T14:16:37.199Z,2.13
2022-12-07T14:19:06.349Z,2.40
2022-12-07T14:21:35.292Z,2.63
2022-12-07T14:24:18.629Z,2.50
2022-12-07T14:26:47.704Z,1.97
2022-12-07T14:29:32.386Z,2.23
2022-12-07T14:32:30.205Z,2.97
2022-12-07T14:35:02.670Z,2.90
2022-12-07T14:37:30.837Z,3.83
2022-12-07T14:39:57.909Z,2.77
2022-12-07T14:42:28.706Z,2.80
2022-12-07T14:44:56.155Z,2.67
2022-12-07T14:50:13.689Z,3.27
2022-12-07T14:55:31.361Z,4.20
2022-12-07T14:57:59.872Z,3.20
2022-12-07T15:00:28.493Z,3.67
2022-12-07T15:02:56.090Z,3.10
2022-12-07T15:05:23.530Z,3.70
2022-12-07T15:07:51.111Z,3.90
2022-12-07T15:10:24.748Z,3.60
2022-12-07T15:12:52.239Z,3.53
2022-12-07T15:15:19.188Z,3.07
2022-12-07T15:17:45.989Z,3.10
2022-12-07T15:20:14.937Z,2.87
2022-12-07T15:22:41.750Z,3.57
2022-12-07T15:25:13.294Z,3.40
2022-12-07T15:27:40.079Z,3.40
2022-12-07T15:30:07.607Z,3.70
2022-12-07T15:32:34.564Z,2.90
2022-12-07T15:35:02.160Z,5.13
2022-12-07T15:37:29.235Z,3.60
2022-12-07T15:39:55.998Z,3.00
2022-12-07T15:42:22.793Z,3.10
2022-12-07T15:45:04.952Z,3.10
2022-12-07T15:47:56.326Z,2.93
2022-12-07T15:50:24.296Z,3.60
2022-12-07T15:52:51.112Z,4.40
2022-12-07T15:55:17.950Z,3.40
2022-12-07T15:57:45.095Z,3.27
2022-12-07T16:00:13.159Z,3.47
2022-12-07T16:02:40.516Z,3.30
2022-12-07T16:05:07.710Z,3.10
2022-12-07T16:07:34.500Z,2.90
2022-12-07T16:10:01.352Z,3.10
2022-12-07T16:12:28.138Z,3.23
2022-12-07T16:14:54.895Z,3.07
2022-12-07T16:17:21.648Z,3.03
2022-12-07T16:19:48.687Z,2.97
2022-12-07T16:22:15.457Z,3.00
2022-12-07T16:24:42.276Z,2.90
2022-12-07T16:27:09.100Z,3.10
2022-12-07T16:29:35.928Z,3.00
2022-12-07T16:32:02.752Z,2.67
2022-12-07T16:34:29.559Z,3.53
2022-12-07T16:37:05.343Z,3.10
2022-12-07T16:39:34.069Z,3.40
2022-12-07T16:42:01.066Z,4.60
2022-12-07T16:44:29.111Z,7.77
2022-12-07T16:46:56.109Z,2.97
2022-12-07T16:49:24.929Z,4.10
2022-12-07T16:52:14.867Z,4.13
2022-12-07T16:54:39.038Z,4.10
2022-12-07T16:57:05.983Z,4.40
2022-12-07T16:59:32.801Z,3.90
2022-12-07T17:01:59.733Z,3.83
2022-12-07T17:04:26.699Z,3.53
2022-12-07T17:06:53.568Z,4.30
2022-12-07T17:09:21.563Z,4.50
2022-12-07T17:11:49.188Z,5.03
2022-12-07T17:14:35.342Z,4.10
2022-12-07T17:17:02.473Z,3.83
2022-12-07T17:19:29.242Z,4.23
2022-12-07T17:21:56.016Z,4.13
2022-12-07T17:24:22.904Z,3.97
2022-12-07T17:26:49.734Z,25.87
2022-12-07T17:29:18.537Z,30.47
2022-12-07T17:31:51.337Z,36.03
2022-12-07T17:34:18.987Z,7.40
2022-12-07T17:36:48.619Z,14.93
2022-12-07T17:39:18.681Z,13.30
2022-12-07T17:42:04.507Z,18.20
2022-12-07T17:44:31.855Z,11.17
2022-12-07T17:46:59.607Z,16.50
2022-12-07T17:49:27.473Z,16.20
2022-12-07T17:52:13.518Z,7.27
2022-12-07T17:54:40.399Z,13.13
2022-12-07T17:57:07.363Z,8.10
2022-12-07T17:59:34.215Z,7.03
2022-12-07T18:02:01.184Z,32.03
2022-12-07T18:04:28.030Z,7.57
2022-12-07T18:06:54.807Z,10.20
2022-12-07T18:09:22.723Z,6.73
2022-12-07T18:11:49.595Z,5.40
2022-12-07T18:14:16.822Z,7.53
2022-12-07T18:16:44.124Z,7.60
2022-12-07T18:19:13.644Z,8.03
2022-12-07T18:21:41.075Z,7.77
2022-12-07T18:24:11.187Z,7.20
2022-12-07T18:26:38.098Z,8.80
2022-12-07T18:29:06.999Z,7.33
2022-12-07T18:31:34.683Z,7.30
2022-12-07T18:34:04.791Z,5.60
2022-12-07T18:36:31.975Z,5.27
2022-12-07T18:38:59.058Z,5.07
2022-12-07T18:41:26.170Z,4.90
2022-12-07T18:43:53.036Z,4.97
2022-12-07T18:46:21.393Z,5.20
2022-12-07T18:48:50.388Z,7.30
2022-12-07T18:51:19.086Z,7.03
2022-12-07T18:53:46.087Z,6.77
2022-12-07T18:56:15.275Z,6.97
2022-12-07T18:59:03.076Z,5.57
2022-12-07T19:01:31.603Z,5.80
2022-12-07T19:03:59.144Z,5.57
2022-12-07T19:06:26.636Z,6.47
2022-12-07T19:08:54.333Z,6.80
2022-12-07T19:11:45.190Z,6.33
2022-12-07T19:14:12.862Z,5.90
2022-12-07T19:16:41.154Z,6.43
2022-12-07T19:19:08.091Z,6.27
2022-12-07T19:21:34.899Z,5.23
2022-12-07T19:24:05.268Z,4.17
2022-12-07T19:26:32.396Z,5.73
2022-12-07T19:28:59.232Z,5.20
2022-12-07T19:31:26.155Z,6.40
2022-12-07T19:33:52.989Z,4.37
2022-12-07T19:36:19.759Z,4.30
2022-12-07T19:38:46.594Z,4.23
2022-12-07T19:41:32.476Z,4.80
2022-12-07T19:44:19.516Z,9.37
2022-12-07T19:46:49.953Z,8.80
2022-12-07T19:49:18.349Z,5.47
2022-12-07T19:51:47.445Z,6.07
2022-12-07T19:54:15.813Z,6.93
2022-12-07T19:56:44.170Z,6.60
2022-12-07T19:59:12.306Z,5.40
2022-12-07T20:01:40.835Z,4.80
2022-12-07T20:04:13.887Z,4.67
2022-12-07T20:06:40.787Z,4.93
2022-12-07T20:09:07.552Z,4.77
2022-12-07T20:11:54.018Z,5.13
2022-12-07T20:14:21.898Z,4.53
2022-12-07T20:16:49.042Z,4.50
2022-12-07T20:19:16.027Z,5.00
2022-12-07T20:21:44.193Z,3.90
2022-12-07T20:24:13.415Z,4.07
2022-12-07T20:26:40.715Z,4.10
2022-12-07T20:29:14.815Z,4.17
2022-12-07T20:31:45.054Z,4.80
2022-12-07T20:34:12.209Z,5.30
2022-12-07T20:36:39.336Z,5.30
2022-12-07T20:39:07.215Z,4.93
2022-12-07T20:41:53.543Z,4.50
2022-12-07T20:44:20.470Z,5.00
2022-12-07T20:46:47.590Z,5.47
2022-12-07T20:49:16.925Z,7.07
2022-12-07T20:51:44.626Z,5.47
2022-12-07T20:54:12.092Z,5.07
2022-12-07T20:56:39.324Z,4.90
2022-12-07T20:59:09.798Z,4.27
2022-12-07T21:01:37.363Z,4.40
2022-12-07T21:04:04.666Z,4.03
2022-12-07T21:06:31.631Z,4.43
2022-12-07T21:08:59.852Z,4.17
2022-12-07T21:11:28.627Z,4.17
2022-12-07T21:13:55.733Z,4.13
2022-12-07T21:16:27.788Z,4.20
2022-12-07T21:18:56.499Z,4.27
2022-12-07T21:21:23.730Z,4.20
2022-12-07T21:23:58.142Z,4.40
2022-12-07T21:26:28.671Z,4.30
2022-12-07T21:28:56.788Z,4.90
2022-12-07T21:31:23.650Z,4.00
2022-12-07T21:33:50.596Z,3.90
2022-12-07T21:36:21.309Z,4.60
2022-12-07T21:38:48.777Z,4.30
2022-12-07T21:41:45.482Z,3.70
2022-12-07T21:44:12.250Z,3.27
2022-12-07T21:46:40.348Z,3.43
2022-12-07T21:49:10.921Z,3.10
2022-12-07T21:51:38.242Z,3.80
2022-12-07T21:54:05.941Z,3.40
2022-12-07T21:56:38.538Z,3.60
2022-12-07T21:59:06.503Z,3.20
2022-12-07T22:01:37.880Z,3.43
2022-12-07T22:04:09.855Z,3.97
2022-12-07T22:06:37.206Z,3.17
2022-12-07T22:09:05.637Z,3.60
2022-12-07T22:11:33.017Z,3.60
2022-12-07T22:14:18.631Z,3.80
2022-12-07T22:16:45.424Z,3.80
2022-12-07T22:19:12.208Z,4.43
2022-12-07T22:21:39.000Z,6.53
2022-12-07T22:24:06.304Z,7.57
2022-12-07T22:26:33.748Z,7.17
2022-12-07T22:29:01.612Z,5.43
2022-12-07T22:31:28.600Z,7.00
2022-12-07T22:33:55.606Z,7.33
2022-12-07T22:36:22.470Z,9.63
2022-12-07T22:38:49.345Z,7.93
2022-12-07T22:41:23.406Z,5.80
2022-12-07T22:43:50.447Z,5.27
2022-12-07T22:46:17.356Z,4.57
2022-12-07T22:48:44.348Z,3.73
2022-12-07T22:51:21.739Z,3.93
2022-12-07T22:53:48.729Z,3.90
2022-12-07T22:56:15.486Z,3.57
2022-12-07T22:58:42.559Z,3.60
2022-12-07T23:01:14.247Z,3.63
2022-12-07T23:03:41.350Z,3.47
2022-12-07T23:06:10.732Z,3.00
2022-12-07T23:08:37.521Z,3.30
2022-12-07T23:11:04.559Z,3.93
2022-12-07T23:13:36.606Z,3.17
2022-12-07T23:16:14.762Z,3.63
2022-12-07T23:18:42.472Z,3.63
2022-12-07T23:21:10.050Z,3.60
2022-12-07T23:23:36.876Z,4.17
2022-12-07T23:26:05.337Z,3.47
2022-12-07T23:28:32.921Z,4.07
2022-12-07T23:31:12.722Z,4.00
2022-12-07T23:33:40.698Z,3.60
2022-12-07T23:36:12.656Z,3.63
2022-12-07T23:38:41.168Z,3.83
2022-12-07T23:41:10.262Z,3.83
2022-12-07T23:43:37.803Z,3.80
2022-12-07T23:46:08.814Z,3.80
2022-12-07T23:48:36.731Z,3.60
2022-12-07T23:51:03.977Z,3.87
2022-12-07T23:53:33.979Z,3.90
2022-12-07T23:56:01.242Z,4.10
2022-12-07T23:58:28.225Z,4.03
